createdAt,value
2022-11-14T00:00:55.058Z,100485.97
2022-11-14T00:05:51.675Z,100492.31
2022-11-14T00:10:49.781Z,100492.31
2022-11-14T00:15:50.304Z,100495.50
2022-11-14T00:20:50.941Z,100493.53
2022-11-14T00:25:47.605Z,100480.69
2022-11-14T00:30:48.651Z,100480.84
2022-11-14T00:35:55.754Z,100465.94
2022-11-14T00:40:52.199Z,100454.16
2022-11-14T00:45:48.643Z,100448.53
2022-11-14T00:50:45.135Z,100451.88
2022-11-14T00:55:42.718Z,100441.47
2022-11-14T01:00:39.375Z,100436.66
2022-11-14T01:05:48.111Z,100436.53
2022-11-14T01:10:49.280Z,100423.59
2022-11-14T01:15:48.345Z,100419.50
2022-11-14T01:20:46.434Z,100408.28
2022-11-14T01:25:43.612Z,100402.06
2022-11-14T01:30:40.365Z,100398.75
2022-11-14T01:35:38.003Z,100398.03
2022-11-14T01:40:34.554Z,100388.78
2022-11-14T01:45:57.644Z,100379.28
2022-11-14T01:51:01.788Z,100370.84
2022-11-14T01:56:00.745Z,100368.06
2022-11-14T02:00:57.833Z,100360.50
2022-11-14T02:05:55.597Z,100346.72
2022-11-14T02:10:51.959Z,100336.22
2022-11-14T02:15:48.361Z,100331.66
2022-11-14T02:20:44.856Z,100331.50
2022-11-14T02:25:41.389Z,100332.56
2022-11-14T02:30:37.852Z,100321.00
2022-11-14T02:35:34.199Z,100314.84
2022-11-14T02:40:30.729Z,100317.53
2022-11-14T02:45:27.654Z,100315.63
2022-11-14T02:50:24.005Z,100314.34
2022-11-14T02:55:21.885Z,100311.56
2022-11-14T03:00:19.048Z,100301.06
2022-11-14T03:05:15.597Z,100311.00
2022-11-14T03:10:13.854Z,100305.03
2022-11-14T03:15:10.819Z,100303.34
2022-11-14T03:20:08.081Z,100300.84
2022-11-14T03:25:04.917Z,100298.78
2022-11-14T03:30:01.380Z,100289.00
2022-11-14T03:34:58.821Z,100292.34
2022-11-14T03:39:55.177Z,100283.34
2022-11-14T03:44:51.593Z,100272.34
2022-11-14T03:49:47.978Z,100274.97
2022-11-14T03:54:44.348Z,100276.19
2022-11-14T03:59:40.706Z,100270.84
2022-11-14T04:04:37.086Z,100255.66
2022-11-14T04:09:33.438Z,100248.56
2022-11-14T04:14:29.883Z,100248.25
2022-11-14T04:19:26.227Z,100251.53
2022-11-14T04:24:22.661Z,100247.00
2022-11-14T04:29:19.068Z,100246.47
2022-11-14T04:34:15.517Z,100242.59
2022-11-14T04:39:11.868Z,100239.31
2022-11-14T04:44:08.670Z,100236.16
2022-11-14T04:49:05.059Z,100234.59
2022-11-14T04:54:01.515Z,100222.59
2022-11-14T04:58:57.881Z,100234.53
2022-11-14T05:03:54.279Z,100234.09
2022-11-14T05:08:50.630Z,100221.06
2022-11-14T05:13:47.332Z,100219.50
2022-11-14T05:18:46.986Z,100219.00
2022-11-14T05:23:43.620Z,100218.91
2022-11-14T05:28:40.054Z,100212.75
2022-11-14T05:33:36.929Z,100219.41
2022-11-14T05:38:34.091Z,100210.69
2022-11-14T05:43:30.622Z,100210.81
2022-11-14T05:48:27.911Z,100211.69
2022-11-14T05:53:26.029Z,100211.53
2022-11-14T05:58:22.761Z,100211.53
2022-11-14T06:03:19.161Z,100214.50
2022-11-14T06:08:15.604Z,100213.44
2022-11-14T06:13:11.951Z,100214.47
2022-11-14T06:18:08.349Z,100222.34
2022-11-14T06:23:04.717Z,100221.75
2022-11-14T06:28:01.078Z,100224.50
2022-11-14T06:32:59.244Z,100222.38
2022-11-14T06:37:55.671Z,100229.00
2022-11-14T06:42:55.605Z,100227.25
2022-11-14T06:47:52.044Z,100213.53
2022-11-14T06:52:48.388Z,100219.19
2022-11-14T06:57:44.724Z,100213.72
2022-11-14T07:02:45.912Z,100214.38
2022-11-14T07:07:42.264Z,100203.53
2022-11-14T07:12:38.677Z,100210.22
2022-11-14T07:17:36.246Z,100213.72
2022-11-14T07:22:32.602Z,100198.44
2022-11-14T07:27:29.406Z,100203.63
2022-11-14T07:32:25.763Z,100187.19
2022-11-14T07:37:22.180Z,100193.06
2022-11-14T07:42:18.696Z,100185.13
2022-11-14T07:47:15.127Z,100165.56
2022-11-14T07:52:11.477Z,100155.75
2022-11-14T07:57:07.842Z,100151.69
2022-11-14T08:02:04.552Z,100144.75
2022-11-14T08:07:01.059Z,100151.72
2022-11-14T08:11:57.470Z,100156.06
2022-11-14T08:16:53.834Z,100161.25
2022-11-14T08:21:50.287Z,100155.84
2022-11-14T08:26:46.695Z,100146.78
2022-11-14T08:31:43.051Z,100151.66
2022-11-14T08:36:39.458Z,100161.44
2022-11-14T08:41:35.811Z,100159.25
2022-11-14T08:46:32.177Z,100161.13
2022-11-14T08:51:28.528Z,100174.13
2022-11-14T08:56:25.185Z,100165.28
2022-11-14T09:01:21.610Z,100170.38
2022-11-14T09:06:17.982Z,100179.31
2022-11-14T09:11:17.998Z,100178.25
2022-11-14T09:16:15.725Z,100181.47
2022-11-14T09:21:12.626Z,100185.31
2022-11-14T09:26:09.986Z,100174.19
2022-11-14T09:31:09.869Z,100178.00
2022-11-14T09:36:08.675Z,100174.28
2022-11-14T09:41:31.020Z,100164.94
2022-11-14T09:46:31.371Z,100159.72
2022-11-14T09:51:36.132Z,100159.78
2022-11-14T09:56:34.130Z,100153.22
2022-11-14T10:01:49.527Z,100143.38
2022-11-14T10:07:03.528Z,100129.41
2022-11-14T10:12:12.967Z,100134.25
2022-11-14T10:17:22.238Z,100124.16
2022-11-14T10:23:01.312Z,100135.63
2022-11-14T10:28:22.694Z,100125.50
2022-11-14T10:33:30.529Z,100130.41
2022-11-14T10:38:33.448Z,100124.91
2022-11-14T10:43:32.303Z,100118.03
2022-11-14T10:48:39.010Z,100134.31
2022-11-14T10:53:45.569Z,100112.63
2022-11-14T10:58:48.835Z,100107.34
2022-11-14T11:03:46.116Z,100098.16
2022-11-14T11:09:02.053Z,100095.50
2022-11-14T11:14:00.980Z,100092.16
2022-11-14T11:19:26.999Z,100089.72
2022-11-14T11:24:35.216Z,100098.31
2022-11-14T11:29:31.545Z,100093.25
2022-11-14T11:34:32.497Z,100094.56
2022-11-14T11:39:33.114Z,100099.66
2022-11-14T11:44:40.104Z,100104.22
2022-11-14T11:49:39.404Z,100103.50
2022-11-14T11:55:12.101Z,100103.50
2022-11-14T12:00:20.381Z,100071.09
2022-11-14T12:05:22.670Z,100061.66
2022-11-14T12:10:29.856Z,100057.56
2022-11-14T12:15:40.974Z,100060.19
2022-11-14T12:20:48.260Z,100069.59
2022-11-14T12:26:05.404Z,100064.56
2022-11-14T12:31:04.523Z,100057.19
2022-11-14T12:36:04.380Z,100052.66
2022-11-14T12:41:02.008Z,100052.28
2022-11-14T12:46:00.717Z,100031.00
2022-11-14T12:50:58.882Z,100022.06
2022-11-14T12:55:58.726Z,100041.69
2022-11-14T13:00:59.821Z,100033.97
2022-11-14T13:06:20.421Z,100029.38
2022-11-14T13:11:59.058Z,100024.81
2022-11-14T13:17:28.490Z,100016.47
2022-11-14T13:22:39.273Z,100010.50
2022-11-14T13:28:05.779Z,99999.97
2022-11-14T13:32:53.652Z,99991.50
2022-11-14T13:38:14.919Z,99988.28
2022-11-14T13:43:45.008Z,99997.06
2022-11-14T13:49:03.063Z,99986.81
2022-11-14T13:53:59.492Z,99982.16
2022-11-14T13:59:18.051Z,99974.88
2022-11-14T14:04:37.911Z,99961.13
2022-11-14T14:09:47.228Z,99938.28
2022-11-14T14:14:53.231Z,99933.63
2022-11-14T14:19:49.602Z,99945.25
2022-11-14T14:25:00.081Z,99951.91
2022-11-14T14:30:08.833Z,99932.44
2022-11-14T14:35:37.356Z,99928.38
2022-11-14T14:40:40.114Z,99929.00
2022-11-14T14:45:47.318Z,99937.91
2022-11-14T14:50:52.699Z,99933.06
2022-11-14T14:55:54.148Z,99932.59
2022-11-14T15:01:18.666Z,99938.97
2022-11-14T15:06:22.706Z,99949.59
2022-11-14T15:11:19.193Z,99944.81
2022-11-14T15:16:16.111Z,99952.13
2022-11-14T15:21:15.192Z,99943.72
2022-11-14T15:26:15.545Z,99935.03
2022-11-14T15:31:22.325Z,99932.03
2022-11-14T15:36:18.885Z,99929.25
2022-11-14T15:41:24.011Z,99919.84
2022-11-14T15:46:49.949Z,99904.91
2022-11-14T15:52:17.732Z,99920.06
2022-11-14T15:57:16.678Z,99893.53
2022-11-14T16:02:18.358Z,99889.91
2022-11-14T16:07:16.793Z,99878.31
2022-11-14T16:12:13.312Z,99874.78
2022-11-14T16:17:14.853Z,99871.06
2022-11-14T16:22:17.256Z,99855.09
2022-11-14T16:27:13.643Z,99856.38
2022-11-14T16:32:11.079Z,99858.38
2022-11-14T16:37:12.446Z,99858.66
2022-11-14T16:42:10.910Z,99851.81
2022-11-14T16:47:07.279Z,99848.06
2022-11-14T16:52:08.478Z,99837.44
2022-11-14T16:57:04.903Z,99831.41
2022-11-14T17:02:02.356Z,99829.56
2022-11-14T17:06:58.876Z,99829.22
2022-11-14T17:11:55.281Z,99833.47
2022-11-14T17:16:51.695Z,99815.31
2022-11-14T17:21:48.147Z,99802.09
2022-11-14T17:26:44.487Z,99837.59
2022-11-14T17:31:45.810Z,99812.22
2022-11-14T17:36:43.366Z,99820.03
2022-11-14T17:41:39.922Z,99812.16
2022-11-14T17:46:36.653Z,99801.34
2022-11-14T17:51:33.027Z,99811.50
2022-11-14T17:56:29.742Z,99798.94
2022-11-14T18:01:26.327Z,99795.50
2022-11-14T18:06:24.246Z,99771.00
2022-11-14T18:11:20.777Z,99774.63
2022-11-14T18:16:19.296Z,99768.38
2022-11-14T18:21:17.128Z,99775.44
2022-11-14T18:26:16.122Z,99775.00
2022-11-14T18:31:13.805Z,99764.19
2022-11-14T18:36:12.693Z,99754.00
2022-11-14T18:41:13.051Z,99754.94
2022-11-14T18:46:12.707Z,99753.16
2022-11-14T18:51:15.475Z,99738.06
2022-11-14T18:56:14.539Z,99749.25
2022-11-14T19:01:37.389Z,99735.00
2022-11-14T19:06:38.629Z,99736.34
2022-11-14T19:11:53.779Z,99737.28
2022-11-14T19:16:50.161Z,99737.84
2022-11-14T19:21:50.542Z,99744.78
2022-11-14T19:26:47.206Z,99740.50
2022-11-14T19:31:43.710Z,99740.13
2022-11-14T19:41:56.580Z,99739.75
2022-11-14T19:46:53.027Z,99734.31
2022-11-14T19:51:50.092Z,99738.59
2022-11-14T19:56:46.916Z,99734.38
2022-11-14T20:01:43.367Z,99728.09
2022-11-14T20:06:41.514Z,99733.78
2022-11-14T20:11:38.378Z,99732.03
2022-11-14T20:16:36.848Z,99739.22
2022-11-14T20:21:33.691Z,99737.97
2022-11-14T20:26:30.239Z,99732.88
2022-11-14T20:31:29.779Z,99735.88
2022-11-14T20:36:31.921Z,99740.75
2022-11-14T20:41:35.569Z,99744.88
2022-11-14T20:46:32.130Z,99747.34
2022-11-14T20:51:28.577Z,99759.47
2022-11-14T20:56:25.432Z,99755.09
2022-11-14T21:01:21.881Z,99757.69
2022-11-14T21:06:18.533Z,99763.47
2022-11-14T21:11:18.192Z,99775.06
2022-11-14T21:16:17.464Z,99772.13
2022-11-14T21:21:19.421Z,99769.75
2022-11-14T21:26:18.991Z,99786.00
2022-11-14T21:31:24.789Z,99777.59
2022-11-14T21:41:37.713Z,99772.91
2022-11-14T21:46:34.103Z,99777.28
2022-11-14T21:51:30.516Z,99775.41
2022-11-14T21:56:30.033Z,99773.72
2022-11-14T22:01:44.986Z,99784.84
2022-11-14T22:06:42.856Z,99780.00
2022-11-14T22:11:40.269Z,99791.34
2022-11-14T22:16:36.665Z,99793.00
2022-11-14T22:21:33.030Z,99790.94
2022-11-14T22:26:30.067Z,99791.88
2022-11-14T22:31:26.498Z,99798.00
2022-11-14T22:36:25.259Z,99798.94
2022-11-14T22:41:32.609Z,99798.78
2022-11-14T22:46:30.041Z,99797.03
2022-11-14T22:51:27.961Z,99794.88
2022-11-14T22:56:28.349Z,99795.13
2022-11-14T23:01:31.045Z,99790.84
2022-11-14T23:06:28.588Z,99793.50
2022-11-14T23:11:28.018Z,99796.03
2022-11-14T23:16:26.508Z,99794.47
2022-11-14T23:21:26.067Z,99800.38
2022-11-14T23:26:23.438Z,99784.59
2022-11-14T23:31:20.520Z,99785.06
2022-11-14T23:36:17.208Z,99767.59
2022-11-14T23:41:19.124Z,99786.22
2022-11-14T23:46:15.778Z,99775.84
2022-11-14T23:51:13.851Z,99771.16
2022-11-14T23:56:13.130Z,99764.38
